createdAt,value
2023-04-04T00:00:08.756Z,102244.53
2023-04-04T00:02:41.812Z,102244.53
2023-04-04T00:05:14.077Z,102243.69
2023-04-04T00:07:47.363Z,102242.78
2023-04-04T00:10:19.525Z,102245.50
2023-04-04T00:12:51.932Z,102240.22
2023-04-04T00:15:24.125Z,102244.66
2023-04-04T00:17:57.351Z,102237.56
2023-04-04T00:20:30.145Z,102234.94
2023-04-04T00:23:02.297Z,102230.50
2023-04-04T00:25:34.492Z,102227.84
2023-04-04T00:28:06.626Z,102228.75
2023-04-04T00:30:39.743Z,102220.78
2023-04-04T00:33:12.143Z,102221.72
2023-04-04T00:35:44.301Z,102230.63
2023-04-04T00:38:16.477Z,102217.31
2023-04-04T00:40:50.395Z,102221.78
2023-04-04T00:43:23.135Z,102214.66
2023-04-04T00:45:55.568Z,102215.59
2023-04-04T00:48:28.697Z,102217.44
2023-04-04T00:51:00.861Z,102213.00
2023-04-04T00:53:33.385Z,102214.81
2023-04-04T00:56:07.505Z,102207.69
2023-04-04T00:58:41.116Z,102212.19
2023-04-04T01:01:13.509Z,102204.19
2023-04-04T01:03:45.719Z,102218.44
2023-04-04T01:06:17.909Z,102219.38
2023-04-04T01:08:52.234Z,102214.94
2023-04-04T01:11:26.079Z,102211.44
2023-04-04T01:13:58.710Z,102209.66
2023-04-04T01:16:31.029Z,102205.28
2023-04-04T01:19:06.300Z,102209.72
2023-04-04T01:21:40.190Z,102199.97
2023-04-04T01:24:13.551Z,102204.44
2023-04-04T01:27:04.754Z,102198.25
2023-04-04T01:29:39.002Z,102193.81
2023-04-04T01:32:19.075Z,102189.44
2023-04-04T01:34:54.296Z,102191.25
2023-04-04T01:37:43.264Z,102187.69
2023-04-04T01:40:21.616Z,102193.97
2023-04-04T01:42:57.438Z,102192.22
2023-04-04T01:45:33.138Z,102189.56
2023-04-04T01:48:08.373Z,102192.25
2023-04-04T01:50:42.167Z,102185.19
2023-04-04T01:53:15.533Z,102190.56
2023-04-04T01:55:47.690Z,102187.94
2023-04-04T01:58:22.412Z,102190.63
2023-04-04T02:00:55.350Z,102195.97
2023-04-04T02:03:27.742Z,102187.13
2023-04-04T02:06:00.349Z,102189.81
2023-04-04T02:08:33.385Z,102187.16
2023-04-04T02:11:05.706Z,102192.53
2023-04-04T02:13:41.424Z,102180.13
2023-04-04T02:16:15.524Z,102185.44
2023-04-04T02:18:48.014Z,102181.94
2023-04-04T02:21:20.396Z,102179.31
2023-04-04T02:23:52.685Z,102182.00
2023-04-04T02:26:26.241Z,102183.78
2023-04-04T02:28:58.390Z,102179.38
2023-04-04T02:31:33.310Z,102178.50
2023-04-04T02:34:06.229Z,102176.75
2023-04-04T02:36:39.130Z,102183.03
2023-04-04T02:39:11.635Z,102188.34
2023-04-04T02:41:45.710Z,102185.72
2023-04-04T02:44:18.056Z,102176.88
2023-04-04T02:46:50.482Z,102185.78
2023-04-04T02:49:22.916Z,102182.25
2023-04-04T02:51:55.830Z,102189.38
2023-04-04T02:54:28.949Z,102194.72
2023-04-04T02:57:01.352Z,102188.53
2023-04-04T02:59:33.812Z,102189.47
2023-04-04T03:02:06.131Z,102185.94
2023-04-04T03:04:38.431Z,102186.88
2023-04-04T03:07:11.452Z,102177.97
2023-04-04T03:09:47.015Z,102184.25
2023-04-04T03:12:22.005Z,102182.50
2023-04-04T03:14:55.446Z,102171.84
2023-04-04T03:17:28.023Z,102179.88
2023-04-04T03:20:00.505Z,102182.56
2023-04-04T03:22:33.688Z,102186.16
2023-04-04T03:25:07.697Z,102190.63
2023-04-04T03:27:40.075Z,102191.53
2023-04-04T03:30:13.373Z,102192.44
2023-04-04T03:32:45.860Z,102188.94
2023-04-04T03:35:18.007Z,102193.41
2023-04-04T03:37:50.534Z,102193.41
2023-04-04T03:40:22.857Z,102195.25
2023-04-04T03:42:55.030Z,102194.34
2023-04-04T03:45:28.136Z,102199.69
2023-04-04T03:48:00.519Z,102188.19
2023-04-04T03:50:36.232Z,102182.00
2023-04-04T03:53:09.213Z,102185.56
2023-04-04T03:55:42.306Z,102185.59
2023-04-04T03:58:14.543Z,102177.59
2023-04-04T04:00:46.737Z,102183.88
2023-04-04T04:03:20.099Z,102191.88
2023-04-04T04:05:53.928Z,102199.91
2023-04-04T04:08:26.480Z,102206.13
2023-04-04T04:11:04.038Z,102206.16
2023-04-04T04:13:37.964Z,102203.50
2023-04-04T04:16:10.546Z,102202.66
2023-04-04T04:18:43.428Z,102201.78
2023-04-04T04:21:19.832Z,102203.63
2023-04-04T04:23:52.017Z,102196.50
2023-04-04T04:26:26.291Z,102186.75
2023-04-04T04:28:59.389Z,102191.22
2023-04-04T04:31:35.584Z,102188.56
2023-04-04T04:34:10.748Z,102194.81
2023-04-04T04:36:45.251Z,102182.41
2023-04-04T04:39:26.396Z,102181.56
2023-04-04T04:42:13.098Z,102186.91
2023-04-04T04:44:52.871Z,102189.59
2023-04-04T04:47:25.862Z,102178.06
2023-04-04T04:49:58.353Z,102176.31
2023-04-04T04:52:40.166Z,102173.66
2023-04-04T04:55:12.410Z,102173.69
2023-04-04T04:57:49.677Z,102169.25
2023-04-04T05:00:27.399Z,102177.25
2023-04-04T05:03:02.768Z,102177.28
2023-04-04T05:06:01.399Z,102181.78
2023-04-04T05:08:33.578Z,102178.25
2023-04-04T05:14:17.640Z,102183.63
2023-04-04T05:16:56.066Z,102185.44
2023-04-04T05:19:33.080Z,102185.44
2023-04-04T05:22:08.275Z,102174.81
2023-04-04T05:24:48.526Z,102193.47
2023-04-04T05:27:24.822Z,102187.28
2023-04-04T05:30:07.796Z,102189.97
2023-04-04T05:32:51.517Z,102187.34
2023-04-04T05:35:29.170Z,102191.81
2023-04-04T05:38:03.341Z,102196.25
2023-04-04T05:40:36.964Z,102204.22
2023-04-04T05:43:15.153Z,102200.72
2023-04-04T05:46:00.199Z,102195.41
2023-04-04T05:48:34.445Z,102193.63
2023-04-04T05:51:07.185Z,102209.59
2023-04-04T05:53:51.682Z,102201.63
2023-04-04T05:56:32.590Z,102210.50
2023-04-04T05:59:06.175Z,102210.50
2023-04-04T06:01:43.804Z,102208.69
2023-04-04T06:04:19.605Z,102207.81
2023-04-04T06:06:52.342Z,102210.44
2023-04-04T06:09:27.581Z,102217.50
2023-04-04T06:12:00.289Z,102211.28
2023-04-04T06:14:32.979Z,102217.44
2023-04-04T06:17:08.000Z,102206.75
2023-04-04T06:19:41.335Z,102207.59
2023-04-04T06:22:13.476Z,102219.13
2023-04-04T06:24:51.485Z,102225.31
2023-04-04T06:27:28.183Z,102224.34
2023-04-04T06:30:00.660Z,102222.53
2023-04-04T06:32:33.846Z,102222.50
2023-04-04T06:35:08.760Z,102236.66
2023-04-04T06:37:47.830Z,102233.09
2023-04-04T06:40:23.773Z,102236.59
2023-04-04T06:42:58.419Z,102231.22
2023-04-04T06:45:38.449Z,102232.06
2023-04-04T06:48:10.621Z,102236.50
2023-04-04T06:50:43.623Z,102237.34
2023-04-04T06:53:19.517Z,102234.66
2023-04-04T06:55:52.757Z,102238.16
2023-04-04T06:58:25.092Z,102240.81
2023-04-04T07:01:00.378Z,102238.13
2023-04-04T07:03:32.546Z,102241.63
2023-04-04T07:06:05.011Z,102246.06
2023-04-04T07:08:37.543Z,102245.16
2023-04-04T07:11:10.282Z,102239.78
2023-04-04T07:13:42.534Z,102232.66
2023-04-04T07:16:14.848Z,102241.50
2023-04-04T07:18:47.297Z,102238.81
2023-04-04T07:21:20.784Z,102241.47
2023-04-04T07:23:54.584Z,102239.63
2023-04-04T07:26:35.204Z,102237.81
2023-04-04T07:29:08.460Z,102236.94
2023-04-04T07:31:41.112Z,102232.44
2023-04-04T07:34:14.372Z,102220.00
2023-04-04T07:36:47.002Z,102225.25
2023-04-04T07:39:19.357Z,102220.81
2023-04-04T07:41:51.488Z,102212.78
2023-04-04T07:44:23.673Z,102209.19
2023-04-04T07:47:08.610Z,102212.72
2023-04-04T07:49:42.278Z,102204.72
2023-04-04T07:52:14.921Z,102206.47
2023-04-04T07:54:47.852Z,102205.56
2023-04-04T07:57:21.349Z,102203.78
2023-04-04T07:59:53.672Z,102193.97
2023-04-04T08:02:26.070Z,102202.88
2023-04-04T08:05:00.373Z,102192.19
2023-04-04T08:07:35.472Z,102195.72
2023-04-04T08:10:08.672Z,102196.59
2023-04-04T08:12:43.197Z,102197.50
2023-04-04T08:15:17.056Z,102194.81
2023-04-04T08:17:50.271Z,102187.69
2023-04-04T08:20:22.486Z,102192.13
2023-04-04T08:22:54.734Z,102193.88
2023-04-04T08:25:27.255Z,102193.88
2023-04-04T08:27:59.433Z,102192.13
2023-04-04T08:30:32.050Z,102194.78
2023-04-04T08:33:06.220Z,102192.97
2023-04-04T08:35:38.722Z,102191.22
2023-04-04T08:38:11.424Z,102184.97
2023-04-04T08:40:48.629Z,102191.19
2023-04-04T08:43:24.614Z,102189.38
2023-04-04T08:45:57.851Z,102196.53
2023-04-04T08:48:31.152Z,102192.06
2023-04-04T08:51:04.811Z,102194.72
2023-04-04T08:53:37.694Z,102183.16
2023-04-04T08:56:10.269Z,102184.94
2023-04-04T08:58:42.988Z,102185.81
2023-04-04T09:01:16.654Z,102184.06
2023-04-04T09:03:50.505Z,102180.50
2023-04-04T09:06:23.713Z,102183.16
2023-04-04T09:08:57.616Z,102191.16
2023-04-04T09:11:31.636Z,102193.81
2023-04-04T09:14:07.208Z,102186.69
2023-04-04T09:16:42.713Z,102190.25
2023-04-04T09:19:15.115Z,102182.25
2023-04-04T09:21:48.095Z,102182.25
2023-04-04T09:24:20.476Z,102192.94
2023-04-04T09:26:53.876Z,102179.59
2023-04-04T09:29:28.894Z,102182.25
2023-04-04T09:32:01.538Z,102182.25
2023-04-04T09:34:33.985Z,102176.94
2023-04-04T09:37:06.469Z,102171.59
2023-04-04T09:39:39.302Z,102175.16
2023-04-04T09:42:13.401Z,102168.03
2023-04-04T09:44:46.736Z,102170.69
2023-04-04T09:47:31.968Z,102165.34
2023-04-04T09:50:05.761Z,102166.28
2023-04-04T09:52:37.911Z,102160.94
2023-04-04T09:55:10.732Z,102168.03
2023-04-04T09:57:43.321Z,102170.72
2023-04-04T10:00:19.722Z,102157.38
2023-04-04T10:02:53.220Z,102154.72
2023-04-04T10:05:28.048Z,102144.97
2023-04-04T10:08:07.677Z,102145.88
2023-04-04T10:10:53.278Z,102144.97
2023-04-04T10:13:37.235Z,102144.09
2023-04-04T10:16:11.086Z,102148.53
2023-04-04T10:18:44.016Z,102143.19
2023-04-04T10:21:17.888Z,102138.75
2023-04-04T10:23:50.829Z,102143.19
2023-04-04T10:26:23.278Z,102138.78
2023-04-04T10:28:57.167Z,102145.00
2023-04-04T10:31:29.569Z,102145.88
2023-04-04T10:34:11.839Z,102146.78
2023-04-04T10:37:03.444Z,102144.13
2023-04-04T10:39:36.499Z,102130.78
2023-04-04T10:42:10.874Z,102129.00
2023-04-04T10:44:45.020Z,102126.31
2023-04-04T10:47:18.056Z,102125.44
2023-04-04T10:49:51.297Z,102121.00
2023-04-04T10:52:24.710Z,102113.00
2023-04-04T10:55:06.356Z,102113.00
2023-04-04T10:57:51.990Z,102106.81
2023-04-04T11:00:24.393Z,102097.88
2023-04-04T11:02:58.573Z,102105.00
2023-04-04T11:05:32.971Z,102102.38
2023-04-04T11:08:09.745Z,102095.22
2023-04-04T11:10:43.398Z,102092.56
2023-04-04T11:13:16.392Z,102087.22
2023-04-04T11:16:10.434Z,102099.69
2023-04-04T11:18:42.969Z,102097.94
2023-04-04T11:21:17.372Z,102105.06
2023-04-04T11:23:50.547Z,102106.84
2023-04-04T11:26:25.698Z,102113.94
2023-04-04T11:28:58.476Z,102106.84
2023-04-04T11:31:35.090Z,102110.41
2023-04-04T11:34:08.243Z,102103.28
2023-04-04T11:36:43.144Z,102104.16
2023-04-04T11:39:19.815Z,102097.06
2023-04-04T11:42:10.795Z,102096.19
2023-04-04T11:45:05.003Z,102105.06
2023-04-04T11:47:39.188Z,102097.06
2023-04-04T11:50:14.514Z,102098.84
2023-04-04T11:52:47.892Z,102096.22
2023-04-04T11:55:21.940Z,102095.28
2023-04-04T11:57:55.770Z,102094.41
2023-04-04T12:00:30.609Z,102100.63
2023-04-04T12:03:05.718Z,102093.56
2023-04-04T12:05:39.278Z,102090.00
2023-04-04T12:08:12.596Z,102091.75
2023-04-04T12:10:45.050Z,102092.69
2023-04-04T12:13:17.368Z,102090.91
2023-04-04T12:15:50.781Z,102098.88
2023-04-04T12:18:23.384Z,102094.41
2023-04-04T12:20:56.853Z,102093.56
2023-04-04T12:23:34.309Z,102082.00
2023-04-04T12:26:06.683Z,102076.69
2023-04-04T12:28:40.408Z,102067.75
2023-04-04T12:31:17.767Z,102073.94
2023-04-04T12:33:52.056Z,102065.06
2023-04-04T12:36:30.201Z,102070.38
2023-04-04T12:39:08.620Z,102059.72
2023-04-04T12:42:07.699Z,102058.84
2023-04-04T12:44:40.030Z,102060.59
2023-04-04T12:47:15.928Z,102071.22
2023-04-04T12:49:48.855Z,102069.47
2023-04-04T12:52:22.616Z,102066.75
2023-04-04T12:57:30.358Z,102052.47
2023-04-04T13:00:04.567Z,102055.09
2023-04-04T13:02:37.513Z,102046.22
2023-04-04T13:05:12.454Z,102046.16
2023-04-04T13:07:45.162Z,102042.56
2023-04-04T13:10:21.460Z,102038.94
2023-04-04T13:12:57.137Z,102038.97
2023-04-04T13:15:48.489Z,102023.78
2023-04-04T13:18:25.121Z,102020.13
2023-04-04T13:20:58.507Z,102023.66
2023-04-04T13:23:30.707Z,102018.28
2023-04-04T13:26:04.611Z,102016.44
2023-04-04T13:28:36.856Z,102019.94
2023-04-04T13:31:10.454Z,102015.44
2023-04-04T13:33:42.657Z,102012.69
2023-04-04T13:36:14.896Z,102012.59
2023-04-04T13:38:47.120Z,102003.66
2023-04-04T13:41:19.364Z,102001.75
2023-04-04T13:43:52.105Z,101994.53
2023-04-04T13:46:24.205Z,101995.25
2023-04-04T13:48:56.396Z,101988.88
2023-04-04T13:51:29.506Z,101986.91
2023-04-04T13:54:01.738Z,101985.84
2023-04-04T13:56:33.934Z,101984.69
2023-04-04T13:59:06.162Z,101982.59
2023-04-04T14:01:40.254Z,101973.31
2023-04-04T14:04:23.280Z,101979.16
2023-04-04T14:06:56.511Z,101977.75
2023-04-04T14:09:29.551Z,101975.41
2023-04-04T14:12:04.427Z,101968.22
2023-04-04T14:14:37.827Z,101965.06
2023-04-04T14:17:11.708Z,101954.31
2023-04-04T14:19:44.191Z,101949.31
2023-04-04T14:22:16.481Z,101951.94
2023-04-04T14:24:48.677Z,101954.47
2023-04-04T14:27:21.113Z,101956.34
2023-04-04T14:29:53.376Z,101953.13
2023-04-04T14:32:26.031Z,101955.53
2023-04-04T14:34:58.441Z,101951.19
2023-04-04T14:37:30.714Z,101952.84
2023-04-04T14:40:03.033Z,101941.47
2023-04-04T14:42:36.939Z,101933.19
2023-04-04T14:45:11.472Z,101936.22
2023-04-04T14:47:44.582Z,101934.09
2023-04-04T14:50:17.541Z,101928.59
2023-04-04T14:52:52.896Z,101932.31
2023-04-04T14:55:25.514Z,101928.16
2023-04-04T14:58:02.444Z,101917.88
2023-04-04T15:00:36.428Z,101913.81
2023-04-04T15:03:08.873Z,101902.44
2023-04-04T15:05:41.599Z,101897.19
2023-04-04T15:08:14.470Z,101907.88
2023-04-04T15:10:46.636Z,101895.19
2023-04-04T15:13:18.893Z,101885.84
2023-04-04T15:15:51.202Z,101881.72
2023-04-04T15:18:23.525Z,101880.13
2023-04-04T15:20:58.848Z,101877.50
2023-04-04T15:23:32.051Z,101883.63
2023-04-04T15:26:04.267Z,101881.47
2023-04-04T15:28:36.707Z,101879.19
2023-04-04T15:31:09.257Z,101874.88
2023-04-04T15:33:42.442Z,101870.44
2023-04-04T15:36:15.909Z,101875.72
2023-04-04T15:38:52.075Z,101874.72
2023-04-04T15:41:24.633Z,101873.75
2023-04-04T15:43:56.864Z,101878.28
2023-04-04T15:46:29.466Z,101877.41
2023-04-04T15:49:01.694Z,101866.66
2023-04-04T15:51:34.077Z,101870.31
2023-04-04T15:54:06.520Z,101863.31
2023-04-04T15:56:38.931Z,101853.78
2023-04-04T15:59:11.946Z,101854.38
2023-04-04T16:01:44.555Z,101851.34
2023-04-04T16:04:17.719Z,101851.19
2023-04-04T16:06:50.010Z,101852.03
2023-04-04T16:09:22.381Z,101842.22
2023-04-04T16:11:55.921Z,101846.03
2023-04-04T16:14:28.798Z,101840.00
2023-04-04T16:17:02.869Z,101835.88
2023-04-04T16:19:35.012Z,101835.41
2023-04-04T16:22:07.452Z,101840.34
2023-04-04T16:24:40.724Z,101828.34
2023-04-04T16:27:16.900Z,101830.84
2023-04-04T16:29:52.082Z,101824.22
2023-04-04T16:32:25.059Z,101823.19
2023-04-04T16:34:57.811Z,101822.06
2023-04-04T16:37:30.008Z,101817.44
2023-04-04T16:40:04.725Z,101827.06
2023-04-04T16:42:38.043Z,101818.78
2023-04-04T16:45:11.125Z,101817.63
2023-04-04T16:47:44.421Z,101822.72
2023-04-04T16:50:17.827Z,101818.00
2023-04-04T16:52:50.091Z,101813.13
2023-04-04T16:55:26.328Z,101819.09
2023-04-04T16:57:58.438Z,101818.72
2023-04-04T17:00:33.544Z,101814.66
2023-04-04T17:03:06.136Z,101811.69
2023-04-04T17:05:38.445Z,101811.22
2023-04-04T17:08:11.530Z,101814.28
2023-04-04T17:10:46.941Z,101811.97
2023-04-04T17:13:20.195Z,101812.41
2023-04-04T17:15:52.770Z,101811.81
2023-04-04T17:18:25.079Z,101806.75
2023-04-04T17:20:57.311Z,101807.06
2023-04-04T17:23:29.796Z,101807.41
2023-04-04T17:26:04.138Z,101804.09
2023-04-04T17:28:36.812Z,101808.91
2023-04-04T17:31:09.706Z,101808.28
2023-04-04T17:33:43.716Z,101809.50
2023-04-04T17:36:17.492Z,101810.66
2023-04-04T17:38:49.750Z,101813.63
2023-04-04T17:41:22.809Z,101815.72
2023-04-04T17:43:55.497Z,101807.09
2023-04-04T17:46:30.087Z,101807.44
2023-04-04T17:49:03.673Z,101809.56
2023-04-04T17:51:36.250Z,101805.34
2023-04-04T17:54:08.642Z,101802.00
2023-04-04T17:56:43.126Z,101802.28
2023-04-04T17:59:16.765Z,101800.78
2023-04-04T18:01:49.426Z,101810.81
2023-04-04T18:04:23.993Z,101809.28
2023-04-04T18:06:56.268Z,101808.56
2023-04-04T18:09:29.597Z,101811.41
2023-04-04T18:12:03.206Z,101817.75
2023-04-04T18:14:35.683Z,101823.25
2023-04-04T18:17:09.102Z,101819.81
2023-04-04T18:19:42.629Z,101819.88
2023-04-04T18:22:15.109Z,101826.22
2023-04-04T18:24:48.757Z,101825.38
2023-04-04T18:27:21.533Z,101829.00
2023-04-04T18:29:54.036Z,101830.84
2023-04-04T18:32:28.494Z,101835.38
2023-04-04T18:35:02.167Z,101827.41
2023-04-04T18:37:35.465Z,101816.75
2023-04-04T18:40:08.452Z,101824.78
2023-04-04T18:42:41.194Z,101824.88
2023-04-04T18:45:16.790Z,101824.88
2023-04-04T18:47:50.285Z,101823.16
2023-04-04T18:50:26.182Z,101830.38
2023-04-04T18:52:59.537Z,101827.69
2023-04-04T18:55:32.232Z,101824.13
2023-04-04T18:58:04.952Z,101824.16
2023-04-04T19:00:37.482Z,101826.84
2023-04-04T19:03:13.552Z,101829.56
2023-04-04T19:05:47.076Z,101842.97
2023-04-04T19:08:19.700Z,101845.63
2023-04-04T19:10:52.036Z,101844.78
2023-04-04T19:13:24.193Z,101848.38
2023-04-04T19:15:56.470Z,101854.63
2023-04-04T19:18:29.152Z,101852.00
2023-04-04T19:21:04.068Z,101860.03
2023-04-04T19:23:37.141Z,101852.91
2023-04-04T19:26:10.198Z,101848.47
2023-04-04T19:28:43.742Z,101846.69
2023-04-04T19:31:22.282Z,101846.69
2023-04-04T19:33:55.972Z,101846.69
2023-04-04T19:36:28.579Z,101844.94
2023-04-04T19:39:01.060Z,101844.94
2023-04-04T19:41:35.279Z,101840.53
2023-04-04T19:44:20.486Z,101842.31
2023-04-04T19:46:53.612Z,101841.44
2023-04-04T19:49:30.596Z,101847.66
2023-04-04T19:52:04.847Z,101849.53
2023-04-04T19:54:43.141Z,101854.00
2023-04-04T19:57:19.907Z,101855.75
2023-04-04T19:59:59.959Z,101854.00
2023-04-04T20:02:37.126Z,101858.50
2023-04-04T20:05:43.737Z,101860.25
2023-04-04T20:08:17.916Z,101863.84
2023-04-04T20:10:52.760Z,101866.53
2023-04-04T20:13:25.857Z,101870.06
2023-04-04T20:16:04.084Z,101870.06
2023-04-04T20:18:37.759Z,101872.75
2023-04-04T20:21:17.370Z,101874.56
2023-04-04T20:23:53.381Z,101870.06
2023-04-04T20:26:41.139Z,101875.44
2023-04-04T20:29:15.115Z,101871.81
2023-04-04T20:32:00.414Z,101885.19
2023-04-04T20:34:47.236Z,101878.06
2023-04-04T20:37:22.242Z,101873.56
2023-04-04T20:39:54.660Z,101873.56
2023-04-04T20:42:30.803Z,101871.75
2023-04-04T20:45:09.139Z,101865.50
2023-04-04T20:47:49.150Z,101862.88
2023-04-04T20:50:27.296Z,101869.09
2023-04-04T20:53:01.617Z,101867.34
2023-04-04T20:55:35.711Z,101874.50
2023-04-04T20:58:09.985Z,101864.72
2023-04-04T21:00:42.876Z,101862.03
2023-04-04T21:03:34.534Z,101857.59
2023-04-04T21:06:14.365Z,101861.22
2023-04-04T21:08:50.643Z,101855.88
2023-04-04T21:11:30.509Z,101854.13
2023-04-04T21:14:06.101Z,101861.28
2023-04-04T21:16:38.379Z,101852.34
2023-04-04T21:19:11.973Z,101854.16
2023-04-04T21:21:44.263Z,101850.63
2023-04-04T21:24:17.985Z,101855.06
2023-04-04T21:26:51.064Z,101854.22
2023-04-04T21:29:25.806Z,101850.72
2023-04-04T21:31:58.896Z,101848.03
2023-04-04T21:34:32.138Z,101859.66
2023-04-04T21:37:05.131Z,101861.47
2023-04-04T21:39:37.376Z,101862.38
2023-04-04T21:42:09.444Z,101855.31
2023-04-04T21:44:42.153Z,101857.09
2023-04-04T21:47:15.347Z,101856.25
2023-04-04T21:49:48.332Z,101855.41
2023-04-04T21:52:20.853Z,101857.19
2023-04-04T21:54:53.158Z,101858.13
2023-04-04T21:57:26.636Z,101856.34
2023-04-04T21:59:59.171Z,101860.84
2023-04-04T22:02:31.540Z,101855.53
2023-04-04T22:05:04.291Z,101847.56
2023-04-04T22:07:36.808Z,101856.50
2023-04-04T22:10:12.500Z,101848.47
2023-04-04T22:12:47.103Z,101852.13
2023-04-04T22:15:20.407Z,101855.69
2023-04-04T22:17:55.041Z,101854.88
2023-04-04T22:20:27.666Z,101861.13
2023-04-04T22:23:00.200Z,101853.16
2023-04-04T22:25:36.329Z,101847.78
2023-04-04T22:28:09.848Z,101849.66
2023-04-04T22:30:42.784Z,101844.31
2023-04-04T22:33:15.263Z,101847.91
2023-04-04T22:35:48.274Z,101843.47
2023-04-04T22:38:21.119Z,101840.84
2023-04-04T22:40:54.193Z,101842.66
2023-04-04T22:43:26.338Z,101843.63
2023-04-04T22:45:59.174Z,101840.09
2023-04-04T22:48:31.582Z,101836.56
2023-04-04T22:51:05.178Z,101833.00
2023-04-04T22:53:37.422Z,101837.50
2023-04-04T22:56:09.817Z,101846.44
2023-04-04T22:58:41.982Z,101837.59
2023-04-04T23:01:14.172Z,101835.84
2023-04-04T23:03:47.978Z,101840.31
2023-04-04T23:06:20.740Z,101843.03
2023-04-04T23:08:52.987Z,101841.28
2023-04-04T23:11:27.546Z,101833.31
2023-04-04T23:14:00.476Z,101828.84
2023-04-04T23:16:35.680Z,101818.25
2023-04-04T23:19:08.232Z,101813.78
2023-04-04T23:21:40.720Z,101809.38
2023-04-04T23:24:13.036Z,101812.13
2023-04-04T23:26:45.445Z,101812.13
2023-04-04T23:29:18.297Z,101817.50
2023-04-04T23:31:50.702Z,101819.31
2023-04-04T23:34:22.884Z,101806.84
2023-04-04T23:36:55.026Z,101810.44
2023-04-04T23:39:29.855Z,101812.28
2023-04-04T23:42:02.769Z,101811.44
2023-04-04T23:44:35.405Z,101809.66
2023-04-04T23:47:07.998Z,101807.91
2023-04-04T23:49:41.584Z,101805.31
2023-04-04T23:52:13.974Z,101808.03
2023-04-04T23:54:46.634Z,101808.94
2023-04-04T23:57:18.990Z,101810.75
2023-04-04T23:59:51.165Z,101801.00
